Time;durP1;ratioP1;P1;durP2;ratioP2;P2;SDS_P1;SDS_P2;PMS_P1;PMS_P2;Temp;Humidity;BMP_temperature;BMP_pressure;BME280_temperature;BME280_humidity;BME280_pressure;Samples;Min_cycle;Max_cycle;Signal;HPM_P1;HPM_P2
2022/08/06 00:02:25;;;;;;;2.47;2.37;;;21.40;93.80;;;22.21;55.64;101271.22;4976716;28;21237;-69
2022/08/06 00:04:59;;;;;;;2.53;2.17;;;21.30;94.30;;;22.28;55.25;101275.66;4975329;28;20630;-70
2022/08/06 00:07:27;;;;;;;2.40;2.20;;;21.30;94.10;;;22.34;55.24;101280.28;4991473;28;20637;-72
2022/08/06 00:10:10;;;;;;;2.50;2.37;;;21.30;94.20;;;22.40;55.07;101292.09;4992361;28;20651;-70
2022/08/06 00:12:37;;;;;;;2.43;2.30;;;21.40;94.10;;;22.38;54.80;101292.25;4974691;28;20657;-71
2022/08/06 00:15:06;;;;;;;2.73;2.53;;;21.40;94.00;;;22.32;54.99;101297.41;4991910;28;20611;-70
2022/08/06 00:17:44;;;;;;;3.03;2.83;;;21.40;94.00;;;22.38;54.84;101300.22;4980434;28;20671;-70
2022/08/06 00:20:15;;;;;;;2.60;2.50;;;21.30;94.20;;;22.34;54.92;101308.72;4974621;28;21107;-71
2022/08/06 00:22:54;;;;;;;2.23;2.13;;;21.30;94.20;;;22.24;54.90;101316.88;4958067;28;20664;-73
2022/08/06 00:25:21;;;;;;;2.10;2.00;;;21.30;94.10;;;22.12;55.04;101306.78;4992091;28;20610;-71
2022/08/06 00:27:48;;;;;;;2.40;2.30;;;21.20;94.40;;;22.09;55.34;101313.25;4990136;28;20618;-70
2022/08/06 00:30:18;;;;;;;2.77;2.57;;;21.10;94.60;;;22.08;55.64;101314.22;4991291;28;20623;-70
2022/08/06 00:32:49;;;;;;;2.40;2.30;;;21.10;94.70;;;21.94;55.69;101316.75;4990894;28;20645;-72
2022/08/06 00:35:20;;;;;;;2.57;2.47;;;21.00;94.70;;;21.85;56.24;101317.78;4973271;28;20725;-70
2022/08/06 00:37:55;;;;;;;2.50;2.33;;;20.90;94.90;;;21.91;56.05;101325.91;4975122;28;20668;-70
2022/08/06 00:40:29;;;;;;;2.67;2.47;;;20.90;95.10;;;22.07;55.25;101314.41;4990362;28;20629;-70
2022/08/06 00:42:59;;;;;;;2.90;2.50;;;20.90;95.00;;;21.94;55.12;101314.09;4986765;28;21046;-72
2022/08/06 00:45:33;;;;;;;2.37;2.27;;;21.00;94.60;;;21.94;55.59;101319.41;4989895;28;20632;-70
2022/08/06 00:48:13;;;;;;;2.53;2.23;;;21.00;94.70;;;21.94;55.60;101328.22;4990269;28;21216;-71
2022/08/06 00:51:00;;;;;;;1.97;1.87;;;21.00;94.70;;;21.99;54.65;101322.41;4989328;28;20635;-70
2022/08/06 00:53:28;;;;;;;2.53;2.43;;;21.00;94.50;;;21.91;55.31;101319.75;4970512;28;20753;-72
2022/08/06 00:56:01;;;;;;;2.30;2.10;;;21.00;94.50;;;21.94;55.41;101324.72;4973179;28;21021;-70
2022/08/06 00:58:35;;;;;;;2.70;2.50;;;21.00;94.60;;;21.97;55.04;101321.75;4990639;28;20829;-70
2022/08/06 01:01:08;;;;;;;2.30;2.20;;;21.00;94.50;;;21.87;55.32;101326.41;4954984;28;21084;-70
2022/08/06 01:03:47;;;;;;;2.47;2.37;;;21.00;94.60;;;21.77;55.51;101329.19;4973339;28;20724;-71
2022/08/06 01:06:21;;;;;;;2.67;2.50;;;20.80;94.60;;;21.79;55.78;101323.69;4975255;28;21193;-70
2022/08/06 01:09:09;;;;;;;2.60;2.40;;;20.80;94.90;;;21.74;55.76;101334.84;4971857;28;20596;-71
2022/08/06 01:11:37;;;;;;;1.97;1.87;;;20.80;94.80;;;21.81;55.40;101329.66;4971750;28;21168;-70
2022/08/06 01:14:06;;;;;;;2.50;2.00;;;20.80;94.80;;;21.78;55.37;101330.00;4972437;28;20654;-70
2022/08/06 01:16:55;;;;;;;2.30;2.20;;;20.80;94.80;;;21.69;56.19;101323.03;4981151;28;20670;-73
2022/08/06 01:19:35;;;;;;;2.17;2.00;;;20.70;95.00;;;21.57;55.95;101325.19;4998263;28;20673;-70
2022/08/06 01:23:30;;;;;;;2.87;2.17;;;20.70;94.90;;;21.86;55.06;101328.22;4974937;28;20675;-71
2022/08/06 01:26:36;;;;;;;2.60;2.20;;;20.80;94.90;;;21.84;55.16;101327.56;4901237;29;20638;-70
2022/08/06 01:29:22;;;;;;;2.40;2.30;;;20.80;94.70;;;21.86;55.15;101328.22;4910666;29;20687;-70
2022/08/06 01:32:30;;;;;;;4.80;3.13;;;20.90;94.60;;;21.82;54.82;101332.22;4966614;28;20662;-70
2022/08/06 01:35:12;;;;;;;2.17;2.07;;;20.80;94.40;;;21.65;55.61;101325.19;4973461;28;20677;-70
2022/08/06 01:38:12;;;;;;;2.43;2.20;;;20.70;94.70;;;21.63;55.36;101328.03;4964276;28;20601;-70
2022/08/06 01:40:46;;;;;;;2.37;2.17;;;20.70;94.60;;;21.69;55.49;101331.00;4974338;28;21205;-70
2022/08/06 01:43:20;;;;;;;2.40;2.30;;;20.70;94.70;;;21.59;55.11;101331.97;4974102;28;21065;-72
2022/08/06 01:46:10;;;;;;;3.40;2.23;;;20.70;94.50;;;21.49;55.63;101323.34;4962224;28;20627;-69
2022/08/06 01:48:40;;;;;;;1.70;1.70;;;20.60;94.70;;;21.36;56.17;101327.50;4980553;28;20646;-70
2022/08/06 01:51:09;;;;;;;2.23;2.03;;;20.50;94.70;;;21.39;55.59;101324.50;4975307;28;20634;-70
2022/08/06 01:53:56;;;;;;;2.07;1.97;;;20.50;94.70;;;21.30;55.86;101325.47;4956894;28;20592;-70
2022/08/06 01:56:38;;;;;;;2.20;2.10;;;20.30;94.90;;;21.34;55.51;101324.97;4963128;28;20649;-70
2022/08/06 01:59:38;;;;;;;2.40;2.17;;;20.30;95.20;;;21.24;55.75;101326.13;4991512;28;20618;-69
2022/08/06 02:02:11;;;;;;;2.30;2.20;;;20.20;95.30;;;21.25;55.99;101323.28;4992512;28;20689;-70
2022/08/06 02:04:45;;;;;;;2.07;1.97;;;20.30;95.30;;;21.26;55.66;101330.28;4977887;28;21227;-72
2022/08/06 02:07:23;;;;;;;2.00;1.90;;;20.20;95.10;;;21.34;55.04;101329.44;4976388;28;20633;-70
2022/08/06 02:10:12;;;;;;;2.37;2.13;;;20.40;94.60;;;21.45;54.68;101324.66;4980258;28;20614;-70
2022/08/06 02:12:41;;;;;;;2.83;2.03;;;20.50;94.60;;;21.44;54.32;101331.00;4976113;28;20643;-70
2022/08/06 02:15:19;;;;;;;2.10;2.00;;;20.50;94.20;;;21.32;54.54;101337.59;4976678;28;20933;-69
2022/08/06 02:17:53;;;;;;;3.50;1.87;;;20.50;94.00;;;21.28;54.47;101343.38;4994284;28;20622;-70
2022/08/06 02:20:41;;;;;;;2.37;2.27;;;20.40;93.90;;;21.14;55.35;101342.19;4978536;28;21296;-70
2022/08/06 02:23:24;;;;;;;2.20;2.10;;;20.30;94.30;;;21.15;54.76;101340.34;4960988;28;21315;-69
2022/08/06 02:26:02;;;;;;;2.03;1.90;;;20.20;94.30;;;21.00;55.30;101344.59;4977091;28;20642;-72
2022/08/06 02:28:31;;;;;;;1.80;1.70;;;20.20;94.20;;;21.05;54.98;101344.97;4959696;28;20614;-69
2022/08/06 02:30:59;;;;;;;3.00;2.10;;;20.10;94.30;;;21.01;54.58;101352.41;4977259;28;20625;-70
2022/08/06 02:33:28;;;;;;;2.20;2.10;;;20.10;94.10;;;20.98;54.50;101358.00;4993121;28;20745;-71
2022/08/06 02:36:33;;;;;;;4.40;1.83;;;20.00;94.20;;;20.99;54.14;101358.84;4993770;28;20594;-70
2022/08/06 02:39:07;;;;;;;3.53;2.00;;;20.00;93.90;;;20.95;54.42;101357.50;4992397;28;20629;-70
2022/08/06 02:41:55;;;;;;;1.83;1.73;;;20.00;93.90;;;21.05;53.96;101359.06;4961882;28;20688;-72
2022/08/06 02:44:44;;;;;;;1.73;1.63;;;20.10;93.60;;;20.93;53.88;101362.16;4973595;28;20623;-71
2022/08/06 02:47:30;;;;;;;1.90;1.80;;;20.00;93.40;;;20.88;54.03;101358.16;4974529;28;20638;-69
2022/08/06 02:50:20;;;;;;;2.50;1.70;;;20.00;93.50;;;20.95;53.64;101366.31;4991353;28;21087;-67
2022/08/06 02:53:01;;;;;;;1.70;1.70;;;20.00;93.10;;;20.97;53.22;101376.75;4976485;28;20682;-70
2022/08/06 02:55:34;;;;;;;2.83;1.80;;;20.00;92.90;;;21.02;52.86;101374.47;4974796;28;21241;-69
2022/08/06 02:58:15;;;;;;;2.03;1.80;;;20.00;92.80;;;20.95;52.86;101370.78;4974606;28;21212;-70
2022/08/06 03:00:47;;;;;;;2.00;1.90;;;20.00;92.70;;;20.87;53.08;101363.59;4991856;28;20634;-72
2022/08/06 03:03:22;;;;;;;2.00;1.90;;;20.00;92.70;;;21.06;52.52;101371.34;4959472;28;20676;-70
2022/08/06 03:06:05;;;;;;;1.80;1.70;;;20.10;92.50;;;20.99;52.40;101375.59;4992760;28;20621;-70
2022/08/06 03:08:35;;;;;;;1.60;1.50;;;20.10;92.20;;;20.85;52.77;101378.84;4992851;28;20635;-69
2022/08/06 03:11:05;;;;;;;3.20;1.90;;;20.00;92.20;;;20.88;52.93;101383.84;4975376;28;20620;-70
2022/08/06 03:13:33;;;;;;;3.63;1.73;;;20.00;92.40;;;20.76;53.15;101380.63;4974410;28;20674;-70
2022/08/06 03:16:03;;;;;;;2.17;1.70;;;19.90;92.50;;;20.72;52.99;101381.13;4973091;28;20732;-73
2022/08/06 03:18:32;;;;;;;1.60;1.50;;;19.90;92.40;;;20.65;52.98;101388.88;4991120;28;20723;-70
2022/08/06 03:21:02;;;;;;;2.90;1.60;;;19.80;92.40;;;20.79;52.75;101382.97;4974717;28;21192;-70
2022/08/06 03:23:36;;;;;;;2.27;1.87;;;19.90;92.90;;;20.64;53.25;101381.88;4974720;28;20678;-69
2022/08/06 03:26:07;;;;;;;1.50;1.50;;;19.80;92.40;;;20.55;53.71;101382.00;4992596;28;20658;-72
2022/08/06 03:28:35;;;;;;;2.20;1.70;;;19.80;92.60;;;20.57;53.28;101387.97;4973923;28;20607;-69
2022/08/06 03:31:03;;;;;;;2.20;2.10;;;19.80;92.50;;;20.44;53.88;101384.91;4974928;28;20635;-69
2022/08/06 03:33:32;;;;;;;1.80;1.70;;;19.60;92.80;;;20.48;53.31;101391.56;4992121;28;20642;-70
2022/08/06 03:36:21;;;;;;;1.80;1.70;;;19.60;92.70;;;20.56;53.08;101386.31;4976704;28;20725;-71
2022/08/06 03:39:14;;;;;;;1.80;1.53;;;19.70;92.60;;;20.54;52.86;101397.06;4976022;28;20617;-70
2022/08/06 03:41:48;;;;;;;1.70;1.70;;;19.60;92.40;;;20.47;52.95;101392.53;4974986;28;20630;-70
2022/08/06 03:44:35;;;;;;;2.40;1.50;;;19.60;92.30;;;20.31;52.50;101398.56;4976317;28;21224;-68
2022/08/06 03:47:13;;;;;;;1.50;1.50;;;19.50;92.00;;;20.33;52.40;101401.06;4972922;28;20662;-71
2022/08/06 03:50:04;;;;;;;2.20;1.60;;;19.50;91.90;;;20.20;52.55;101397.94;4990985;28;20626;-69
2022/08/06 03:52:38;;;;;;;1.40;1.40;;;19.30;91.90;;;20.14;52.48;101402.06;4989140;28;20673;-70
2022/08/06 03:55:14;;;;;;;1.27;1.07;;;19.30;91.90;;;20.01;52.59;101399.78;4974452;28;20618;-71
2022/08/06 03:57:53;;;;;;;1.67;1.43;;;19.20;91.90;;;20.10;52.20;101398.06;4974751;28;21197;-69
2022/08/06 04:00:24;;;;;;;1.60;1.50;;;19.20;91.90;;;20.23;52.22;101397.69;4974574;28;20737;-69
2022/08/06 04:02:56;;;;;;;2.80;1.70;;;19.20;91.70;;;20.17;52.08;101396.44;4974552;28;20670;-69
2022/08/06 04:05:26;;;;;;;1.70;1.30;;;19.30;91.60;;;20.08;52.61;101400.81;4990568;28;20614;-73
2022/08/06 04:08:00;;;;;;;2.67;1.73;;;19.30;91.60;;;20.01;52.29;101399.78;4992503;28;20840;-70
2022/08/06 04:10:39;;;;;;;3.13;1.30;;;19.30;91.50;;;20.05;52.35;101406.44;4990674;28;20618;-68
2022/08/06 04:13:25;;;;;;;1.33;1.33;;;19.20;91.60;;;20.18;52.16;101405.22;4979766;23;20700;-65
2022/08/06 04:16:14;;;;;;;1.40;1.30;;;19.30;91.60;;;20.20;51.96;101408.53;4938197;28;21009;-65
2022/08/06 04:18:57;;;;;;;1.20;1.20;;;19.30;91.70;;;20.27;51.66;101413.13;4966745;28;20684;-65
2022/08/06 04:21:25;;;;;;;1.40;1.40;;;19.40;91.50;;;20.12;52.37;101412.78;4970714;28;21183;-65
2022/08/06 04:24:13;;;;;;;1.17;1.17;;;19.20;91.60;;;19.92;52.94;101415.75;4933894;28;20682;-66
2022/08/06 04:26:45;;;;;;;1.17;1.17;;;19.10;91.90;;;19.99;52.90;101412.38;4961995;28;20621;-65
2022/08/06 04:29:17;;;;;;;1.70;1.60;;;19.00;92.40;;;19.95;52.92;101420.75;4937769;29;20638;-64
2022/08/06 04:31:48;;;;;;;1.87;1.57;;;19.00;92.20;;;20.05;52.46;101416.22;4939089;29;21045;-64
2022/08/06 04:34:38;;;;;;;1.40;1.30;;;19.20;91.80;;;20.18;52.09;101418.47;4933532;29;20628;-66
2022/08/06 04:37:25;;;;;;;1.60;1.50;;;19.30;91.70;;;20.26;51.67;101429.16;4947741;29;21056;-66
2022/08/06 04:39:57;;;;;;;3.57;1.80;;;19.40;91.40;;;20.33;51.54;101423.09;4952113;28;20625;-69
2022/08/06 04:42:25;;;;;;;1.97;1.40;;;19.40;91.30;;;20.38;51.19;101426.09;4936090;29;20677;-67
2022/08/06 04:44:54;;;;;;;1.83;1.40;;;19.50;91.10;;;20.47;50.72;101433.13;4931713;29;20629;-67
2022/08/06 04:47:30;;;;;;;1.20;1.20;;;19.60;90.60;;;20.43;51.10;101438.91;4934558;29;20757;-67
2022/08/06 04:50:10;;;;;;;1.53;1.50;;;19.60;90.60;;;20.57;50.48;101444.47;4944140;28;20625;-66
2022/08/06 04:52:37;;;;;;;1.70;1.20;;;19.60;90.50;;;20.53;50.55;101437.81;4941363;28;20660;-66
2022/08/06 04:55:19;;;;;;;1.30;1.30;;;19.70;90.40;;;20.57;50.54;101438.38;4936656;28;20643;-67
2022/08/06 04:58:07;;;;;;;1.53;1.00;;;19.70;90.40;;;20.45;50.72;101447.53;4940947;29;20723;-66
2022/08/06 05:00:47;;;;;;;1.40;1.30;;;19.70;90.20;;;20.53;50.47;101447.63;4934154;29;20637;-66
2022/08/06 05:03:34;;;;;;;1.37;1.20;;;19.70;90.20;;;20.56;50.48;101447.28;4939980;29;21215;-66
2022/08/06 05:06:35;;;;;;;2.77;1.60;;;19.70;90.20;;;20.73;49.98;101454.38;4943371;28;20709;-67
2022/08/06 05:09:08;;;;;;;3.30;1.60;;;19.90;89.80;;;20.96;49.28;101452.00;4944249;29;20640;-66
2022/08/06 05:11:56;;;;;;;2.70;1.23;;;20.00;89.10;;;21.04;48.78;101455.56;4926695;29;20622;-66
2022/08/06 05:14:54;;;;;;;3.83;1.37;;;20.10;88.50;;;21.19;48.52;101469.91;4913646;29;20622;-66
2022/08/06 05:17:26;;;;;;;1.20;1.20;;;20.20;87.80;;;21.30;47.91;101464.34;4950717;29;21179;-67
2022/08/06 05:20:09;;;;;;;3.10;1.30;;;20.40;87.00;;;21.42;47.32;101478.16;4950491;28;20743;-67
2022/08/06 05:23:06;;;;;;;1.43;1.43;;;20.60;86.10;;;21.67;46.97;101463.97;4931447;29;20673;-67
2022/08/06 05:25:45;;;;;;;1.10;1.10;;;20.80;85.50;;;21.93;46.37;101463.91;4944740;29;20635;-67
2022/08/06 05:28:20;;;;;;;2.10;1.90;;;21.00;84.20;;;22.19;45.51;101473.38;4951142;28;20620;-66
2022/08/06 05:30:53;;;;;;;2.73;1.20;;;21.30;83.40;;;22.43;45.22;101472.56;4938375;28;20638;-67
2022/08/06 05:33:24;;;;;;;2.33;1.20;;;21.50;82.70;;;22.42;44.98;101474.38;4933848;29;20648;-66
2022/08/06 05:35:56;;;;;;;1.90;1.17;;;21.70;81.90;;;22.81;44.30;101479.03;4941816;29;20641;-67
2022/08/06 05:38:36;;;;;;;1.40;1.30;;;21.90;81.60;;;22.97;44.09;101476.34;4944439;29;20624;-66
2022/08/06 05:41:09;;;;;;;1.23;1.13;;;22.10;80.80;;;23.46;43.31;101490.38;4935082;29;20633;-65
2022/08/06 05:43:38;;;;;;;1.20;1.20;;;22.40;80.10;;;23.85;42.41;101483.19;4950614;29;20669;-67
2022/08/06 05:46:30;;;;;;;1.30;1.30;;;22.80;78.90;;;24.12;41.20;101477.38;4930297;29;20640;-66
2022/08/06 05:49:17;;;;;;;1.40;1.30;;;23.10;77.40;;;24.44;40.50;101485.13;4964048;28;20616;-66
2022/08/06 05:52:23;;;;;;;6.77;1.57;;;23.30;75.70;;;24.74;39.54;101498.53;4945420;28;20635;-67
2022/08/06 05:55:11;;;;;;;0.97;0.97;;;23.70;75.00;;;25.09;38.72;101506.69;4948150;29;20698;-68
2022/08/06 05:58:01;;;;;;;1.20;1.20;;;24.00;73.50;;;24.52;39.97;101497.53;4920308;29;20656;-67
2022/08/06 06:00:32;;;;;;;1.10;1.10;;;23.50;74.30;;;24.76;39.68;101501.88;4936033;29;20624;-67
2022/08/06 06:03:13;;;;;;;1.40;1.30;;;23.70;73.80;;;25.46;38.75;101507.63;4948656;29;20665;-66
2022/08/06 06:05:58;;;;;;;5.20;1.30;;;24.00;73.30;;;25.97;37.37;101514.63;4959991;28;21065;-68
2022/08/06 06:08:44;;;;;;;1.57;1.20;;;24.50;71.70;;;26.11;37.30;101511.09;4954341;28;20633;-66
2022/08/06 06:11:26;;;;;;;1.67;1.37;;;24.80;70.80;;;27.05;35.72;101517.91;4955006;28;20621;-66
2022/08/06 06:14:40;;;;;;;0.90;0.90;;;25.40;70.00;;;28.29;32.94;101521.16;4952897;29;21215;-65
2022/08/06 06:17:32;;;;;;;1.17;1.10;;;26.10;67.80;;;28.08;33.76;101519.47;4943330;29;20685;-65
2022/08/06 06:20:24;;;;;;;1.33;1.20;;;26.10;67.10;;;28.66;32.60;101507.16;4961463;28;20621;-67
2022/08/06 06:23:19;;;;;;;5.50;1.10;;;26.50;66.00;;;28.90;32.06;101519.13;4940789;29;20672;-66
2022/08/06 06:26:25;;;;;;;3.03;1.00;;;26.60;65.30;;;29.80;30.57;101524.47;4933658;29;21181;-66
2022/08/06 06:29:47;;;;;;;1.57;1.43;;;27.00;64.70;;;29.46;31.55;101519.41;4944878;29;20636;-69
2022/08/06 06:32:49;;;;;;;1.80;1.30;;;27.20;63.70;;;30.51;29.60;101527.78;4927525;29;20636;-65
2022/08/06 06:35:43;;;;;;;2.13;1.37;;;27.20;63.70;;;29.42;31.01;101526.25;4951769;29;20742;-65
2022/08/06 06:38:58;;;;;;;1.20;1.10;;;27.00;63.40;;;30.48;29.94;101523.66;4953348;29;20651;-66
2022/08/06 06:41:42;;;;;;;1.33;0.90;;;27.20;63.20;;;31.25;28.82;101530.41;4915042;29;20671;-66
2022/08/06 06:44:31;;;;;;;2.30;1.30;;;27.70;62.20;;;32.16;27.71;101538.47;4934051;28;20681;-65
2022/08/06 06:48:25;;;;;;;1.37;1.27;;;28.40;61.30;;;33.59;25.55;101533.25;4935511;29;20612;-66
2022/08/06 06:51:02;;;;;;;1.80;1.10;;;28.80;60.30;;;33.56;25.39;101538.34;4930073;29;20641;-67
2022/08/06 06:53:35;;;;;;;2.20;1.43;;;29.40;58.90;;;34.95;24.15;101546.53;4941809;28;20744;-66
2022/08/06 06:56:31;;;;;;;1.93;1.33;;;30.10;57.90;;;34.42;24.61;101535.34;4947798;29;20683;-68
2022/08/06 06:59:24;;;;;;;2.17;1.40;;;30.10;57.10;;;34.18;25.16;101547.41;4965182;28;20731;-68
2022/08/06 07:02:20;;;;;;;1.47;1.30;;;30.00;56.70;;;35.07;23.76;101541.88;4946937;29;20645;-67
2022/08/06 07:04:51;;;;;;;1.93;1.33;;;30.20;56.30;;;35.03;23.77;101548.03;4953934;28;20668;-68
2022/08/06 07:07:20;;;;;;;1.47;1.20;;;30.20;56.00;;;36.63;22.59;101544.72;4960509;28;20620;-67
2022/08/06 07:09:53;;;;;;;2.03;1.13;;;31.10;55.00;;;36.50;22.30;101560.38;4960719;28;21038;-68
2022/08/06 07:12:30;;;;;;;2.53;1.30;;;31.00;54.80;;;35.35;23.30;101551.75;4946684;28;20667;-67
2022/08/06 07:15:05;;;;;;;3.43;1.40;;;30.70;54.30;;;34.29;24.29;101546.50;4947841;28;20647;-67
2022/08/06 07:17:46;;;;;;;1.80;1.23;;;30.20;54.80;;;36.07;22.90;101548.81;4936073;29;21045;-67
2022/08/06 07:20:24;;;;;;;3.70;1.50;;;30.70;54.50;;;36.95;21.70;101559.13;4934194;29;20626;-67
2022/08/06 07:22:58;;;;;;;1.00;1.00;;;31.30;53.90;;;38.16;20.81;101551.47;4928754;29;20719;-66
2022/08/06 07:25:48;;;;;;;1.30;1.23;;;32.00;53.10;;;37.77;20.41;101551.06;4914729;29;20590;-66
2022/08/06 07:28:25;;;;;;;1.90;1.30;;;32.70;51.60;;;37.91;21.33;101550.31;4947840;29;20740;-65
2022/08/06 07:30:59;;;;;;;4.27;1.20;;;32.80;51.50;;;38.99;19.71;101548.19;4934961;29;20628;-66
2022/08/06 07:33:38;;;;;;;2.30;1.50;;;33.90;50.60;;;38.39;20.80;101545.50;4934644;29;20685;-66
2022/08/06 07:36:31;;;;;;;2.30;1.27;;;33.80;50.10;;;39.34;19.53;101545.34;4933591;29;21029;-66
2022/08/06 07:39:09;;;;;;;1.27;1.20;;;34.30;49.10;;;40.82;17.92;101566.84;4914502;29;20621;-65
2022/08/06 07:41:43;;;;;;;5.43;2.73;;;35.00;48.30;;;39.83;18.54;101552.78;4913620;29;20658;-65
2022/08/06 07:44:35;;;;;;;3.07;1.33;;;34.70;47.70;;;40.89;18.10;101556.34;4951390;28;20672;-65
2022/08/06 07:47:36;;;;;;;1.63;1.53;;;35.30;47.30;;;43.16;16.16;101558.47;4942603;29;20999;-66
2022/08/06 07:50:22;;;;;;;4.00;1.40;;;36.50;46.60;;;42.92;16.28;101552.38;4965212;28;20632;-64
2022/08/06 07:52:52;;;;;;;1.60;1.30;;;37.00;45.10;;;40.69;18.05;101550.25;4945276;28;20645;-65
2022/08/06 07:55:24;;;;;;;2.87;1.23;;;36.30;45.10;;;42.65;16.27;101552.31;4933714;28;20639;-65
2022/08/06 07:58:04;;;;;;;1.10;1.10;;;36.70;45.30;;;43.54;15.81;101542.59;4941052;29;21052;-65
2022/08/06 08:00:32;;;;;;;1.27;0.93;;;37.30;44.70;;;43.08;15.70;101554.53;4964385;28;20715;-65
2022/08/06 08:06:17;;;;;;;1.07;1.07;;;37.80;43.50;;;44.36;13.95;101554.16;4940755;29;20604;-66
2022/08/06 08:08:53;;;;;;;1.17;1.07;;;37.70;42.00;;;42.80;14.73;101550.09;4950186;29;20727;-67
2022/08/06 08:11:24;;;;;;;1.30;1.20;;;37.20;41.60;;;41.94;15.21;101545.19;4950565;29;20631;-66
2022/08/06 08:14:21;;;;;;;3.23;1.20;;;36.90;41.20;;;40.35;17.05;101541.25;4951504;29;20867;-67
2022/08/06 08:16:50;;;;;;;1.50;0.97;;;35.70;42.50;;;39.53;17.07;101551.81;4952070;28;20708;-65
2022/08/06 08:19:22;;;;;;;1.70;1.10;;;35.30;41.40;;;41.04;15.73;101541.69;4947541;28;20651;-66
2022/08/06 08:21:56;;;;;;;1.80;1.20;;;35.70;41.00;;;39.43;17.42;101549.16;4939970;28;21213;-63
2022/08/06 08:24:24;;;;;;;2.53;1.63;;;35.30;41.80;;;38.96;17.50;101534.25;4932723;29;20760;-66
2022/08/06 08:26:53;;;;;;;1.27;1.07;;;34.90;42.20;;;41.27;16.53;101556.53;4932800;29;20624;-67
2022/08/06 08:29:41;;;;;;;1.63;1.63;;;35.50;42.50;;;43.03;14.90;101545.56;4935851;29;20648;-66
2022/08/06 08:32:21;;;;;;;1.20;1.10;;;36.60;41.40;;;42.58;14.63;101557.38;4934343;29;20641;-65
2022/08/06 08:34:48;;;;;;;1.20;1.10;;;36.50;40.70;;;43.35;14.61;101539.97;4932692;29;20640;-66
2022/08/06 08:37:20;;;;;;;1.23;0.90;;;36.80;40.60;;;43.28;14.09;101544.28;4933270;29;21046;-67
2022/08/06 08:39:47;;;;;;;1.00;0.90;;;37.00;40.30;;;44.94;13.45;101546.56;4937572;29;20735;-64
2022/08/06 08:42:21;;;;;;;1.33;1.17;;;38.00;40.00;;;41.54;15.50;101534.78;4952987;28;20644;-66
2022/08/06 08:45:00;;;;;;;1.53;1.00;;;36.60;40.10;;;43.57;13.98;101539.22;4944493;29;20713;-67
2022/08/06 08:47:30;;;;;;;1.73;1.00;;;37.20;40.20;;;42.12;14.58;101541.66;4951123;29;20759;-65
2022/08/06 08:50:25;;;;;;;1.10;1.10;;;37.00;39.90;;;41.83;15.54;101540.19;4957531;28;21018;-65
2022/08/06 08:53:06;;;;;;;1.00;1.00;;;36.70;39.70;;;42.82;14.09;101536.06;4966439;28;21089;-67
2022/08/06 08:55:35;;;;;;;1.60;1.50;;;37.00;39.70;;;44.44;13.34;101545.16;4951383;28;21215;-66
2022/08/06 08:58:22;;;;;;;1.03;1.03;;;37.90;39.20;;;43.92;13.75;101527.44;4951824;28;20636;-65
2022/08/06 09:01:10;;;;;;;1.20;1.10;;;38.50;38.50;;;44.90;12.91;101540.06;4938601;29;20636;-65
2022/08/06 09:03:58;;;;;;;1.33;1.10;;;38.00;39.10;;;46.49;11.39;101564.94;4932824;29;20680;-66
2022/08/06 09:06:28;;;;;;;0.90;0.90;;;39.30;37.90;;;46.54;11.39;101553.72;4947075;29;21058;-65
2022/08/06 09:09:05;;;;;;;0.80;0.80;;;39.00;37.60;;;47.75;10.70;101551.19;4945457;28;21278;-67
2022/08/06 09:11:35;;;;;;;0.90;0.90;;;39.90;37.20;;;49.47;10.29;101546.09;4946320;29;20628;-66
2022/08/06 09:14:22;;;;;;;1.23;0.93;;;41.10;36.50;;;48.25;10.28;101546.34;4937190;29;20631;-65
2022/08/06 09:17:01;;;;;;;0.90;0.90;;;41.20;35.80;;;49.21;9.73;101548.47;4927070;29;20680;-65
2022/08/06 09:19:30;;;;;;;0.70;0.70;;;41.40;35.30;;;47.47;10.61;101551.69;4950148;29;20740;-66
2022/08/06 09:22:05;;;;;;;1.63;1.17;;;40.50;35.70;;;48.24;10.37;101547.50;4940017;28;21196;-65
2022/08/06 09:24:36;;;;;;;2.00;1.10;;;40.30;36.30;;;48.16;10.74;101540.06;4936437;29;20673;-65
2022/08/06 09:27:14;;;;;;;1.30;0.87;;;40.30;36.50;;;48.90;10.43;101545.47;4944366;29;20736;-66
2022/08/06 09:30:07;;;;;;;1.20;1.10;;;40.60;36.80;;;48.52;10.67;101536.63;4943227;29;20677;-65
2022/08/06 09:32:55;;;;;;;0.90;0.90;;;40.90;36.30;;;45.98;11.75;101531.91;4918193;29;20618;-66
2022/08/06 09:35:30;;;;;;;1.00;1.00;;;39.50;36.00;;;48.76;10.05;101544.94;4917248;29;20697;-66
2022/08/06 09:38:14;;;;;;;0.90;0.90;;;40.60;35.80;;;48.46;10.40;101541.56;4922714;29;20632;-66
2022/08/06 09:41:06;;;;;;;1.37;0.80;;;40.80;35.30;;;48.86;9.66;101541.75;4936039;29;20625;-66
2022/08/06 09:43:42;;;;;;;1.00;1.00;;;40.60;35.10;;;51.33;8.31;101543.19;4939917;28;20708;-66
2022/08/06 09:46:57;;;;;;;0.80;0.80;;;42.50;34.80;;;48.17;10.12;101537.00;4949278;28;21025;-66
2022/08/06 09:49:25;;;;;;;3.37;1.10;;;41.90;34.10;;;49.89;9.15;101534.69;4953491;28;20625;-66
2022/08/06 09:52:17;;;;;;;0.90;0.90;;;41.90;34.30;;;47.68;10.20;101543.41;4947593;28;21048;-65
2022/08/06 09:54:48;;;;;;;0.90;0.90;;;41.20;34.10;;;48.11;10.36;101529.25;4962086;28;21196;-65
2022/08/06 09:57:22;;;;;;;1.93;1.10;;;40.70;35.50;;;45.31;11.48;101525.97;4948116;29;20645;-66
2022/08/06 10:00:00;;;;;;;1.53;0.90;;;39.80;34.60;;;44.04;12.22;101519.47;4942812;28;20634;-66
2022/08/06 10:02:33;;;;;;;1.10;0.80;;;39.30;34.80;;;44.83;11.75;101528.72;4951105;28;21044;-67
2022/08/06 10:05:13;;;;;;;0.90;0.90;;;38.70;35.40;;;44.80;11.55;101520.28;4954611;28;20652;-65
2022/08/06 10:07:47;;;;;;;1.20;1.00;;;39.00;35.20;;;46.33;10.65;101527.97;4955613;28;21071;-65
2022/08/06 10:10:38;;;;;;;1.00;1.00;;;39.20;35.50;;;46.89;10.98;101526.81;4953624;29;21210;-65
2022/08/06 10:13:26;;;;;;;1.10;1.10;;;39.40;35.70;;;45.82;11.53;101522.44;4982880;23;21069;-67
2022/08/06 10:16:19;;;;;;;3.17;1.10;;;39.10;35.90;;;44.73;12.39;101528.97;4993376;28;20623;-69
2022/08/06 10:18:49;;;;;;;0.90;0.90;;;38.70;35.80;;;44.80;12.15;101520.28;5002618;28;20736;-67
2022/08/06 10:21:32;;;;;;;1.47;0.90;;;38.70;35.70;;;44.06;12.46;101519.16;5013429;28;20624;-69
2022/08/06 10:24:15;;;;;;;1.93;1.10;;;38.40;35.90;;;42.49;13.20;101515.28;5011603;28;20696;-67
2022/08/06 10:27:07;;;;;;;1.40;0.93;;;37.60;36.00;;;38.90;15.63;101524.47;4998073;28;21160;-67
2022/08/06 10:29:45;;;;;;;3.00;1.00;;;36.00;36.50;;;36.83;17.51;101513.03;5011973;28;20633;-67
2022/08/06 10:32:45;;;;;;;0.87;0.60;;;34.60;37.70;;;34.82;19.28;101508.91;4996204;28;20649;-67
2022/08/06 10:35:19;;;;;;;1.13;1.13;;;33.60;38.20;;;34.28;20.62;101506.94;5011957;28;20638;-67
2022/08/06 10:38:01;;;;;;;0.90;0.90;;;32.50;39.50;;;33.58;21.13;101493.72;4996377;28;20661;-67
2022/08/06 10:40:43;;;;;;;1.37;1.20;;;32.00;40.40;;;31.29;23.53;101507.34;5012183;28;20985;-67
2022/08/06 10:43:25;;;;;;;1.53;1.10;;;30.60;41.20;;;30.30;24.81;101499.38;4997666;28;20638;-67
2022/08/06 10:45:55;;;;;;;2.57;1.10;;;29.70;42.20;;;29.51;26.16;101496.25;5011342;28;20697;-66
2022/08/06 10:48:24;;;;;;;2.80;1.10;;;28.80;43.50;;;29.08;26.51;101490.56;5012581;28;21195;-67
2022/08/06 10:51:12;;;;;;;1.63;1.00;;;28.40;44.40;;;29.07;26.23;101499.66;5010951;28;20637;-67
2022/08/06 10:53:42;;;;;;;1.07;0.97;;;28.10;44.30;;;28.36;27.51;101489.78;5012850;28;20629;-68
2022/08/06 10:56:30;;;;;;;1.23;0.97;;;27.60;44.80;;;28.00;27.39;101492.84;5011203;28;20649;-68
2022/08/06 10:59:08;;;;;;;2.00;1.03;;;27.00;45.10;;;27.78;28.05;101491.28;4996829;28;20610;-69
2022/08/06 11:02:08;;;;;;;2.83;1.03;;;26.70;45.60;;;27.52;28.76;101475.94;4994443;28;20695;-68
2022/08/06 11:05:15;;;;;;;1.10;1.00;;;26.60;46.20;;;27.19;29.25;101482.16;5008650;28;20669;-69
2022/08/06 11:08:00;;;;;;;1.00;1.00;;;26.20;46.90;;;27.04;29.23;101487.63;4998903;28;21212;-68
2022/08/06 11:11:05;;;;;;;0.80;0.80;;;26.00;47.30;;;26.76;29.55;101474.25;5013251;28;20618;-68
2022/08/06 11:13:48;;;;;;;1.57;0.80;;;25.80;47.00;;;26.74;29.51;101483.50;4987078;28;20653;-68